createdAt,value
2017-12-21T00:00:11.591Z,2.00
2017-12-21T00:02:39.977Z,2.10
2017-12-21T00:05:08.272Z,2.10
2017-12-21T00:07:35.825Z,2.10
2017-12-21T00:10:03.392Z,2.10
2017-12-21T00:12:30.923Z,2.10
2017-12-21T00:14:59.230Z,2.10
2017-12-21T00:17:26.823Z,2.10
2017-12-21T00:19:54.355Z,2.10
2017-12-21T00:22:33.889Z,2.00
2017-12-21T00:25:01.453Z,2.00
2017-12-21T00:27:28.991Z,2.00
2017-12-21T00:29:56.564Z,1.90
2017-12-21T00:32:24.096Z,1.80
2017-12-21T00:34:52.395Z,1.80
2017-12-21T00:37:20.164Z,1.80
2017-12-21T00:39:47.697Z,1.70
2017-12-21T00:42:15.522Z,1.80
2017-12-21T00:44:43.119Z,1.80
2017-12-21T00:47:11.427Z,1.80
2017-12-21T00:49:38.969Z,1.80
2017-12-21T00:52:06.542Z,1.80
2017-12-21T00:54:34.087Z,1.70
2017-12-21T00:57:01.649Z,1.80
2017-12-21T00:59:29.987Z,1.90
2017-12-21T01:01:57.523Z,1.90
2017-12-21T01:04:25.060Z,1.80
2017-12-21T01:06:52.842Z,1.80
2017-12-21T01:09:20.375Z,1.80
2017-12-21T01:11:47.906Z,1.80
2017-12-21T01:14:16.341Z,1.90
2017-12-21T01:16:43.883Z,1.90
2017-12-21T01:19:11.425Z,1.80
2017-12-21T01:21:39.808Z,1.90
2017-12-21T01:24:07.341Z,1.90
2017-12-21T01:26:35.642Z,1.90
2017-12-21T01:29:03.232Z,1.90
2017-12-21T01:31:30.765Z,1.80
2017-12-21T01:33:58.307Z,1.80
2017-12-21T01:36:25.877Z,1.70
2017-12-21T01:38:53.632Z,1.70
2017-12-21T01:41:21.174Z,1.70
2017-12-21T01:43:49.496Z,1.80
2017-12-21T01:46:17.033Z,1.80
2017-12-21T01:48:44.563Z,1.70
2017-12-21T01:51:13.848Z,1.60
2017-12-21T01:53:42.157Z,1.70
2017-12-21T01:56:09.692Z,1.60
2017-12-21T01:58:37.281Z,1.60
2017-12-21T02:01:04.836Z,1.60
2017-12-21T02:03:32.379Z,1.70
2017-12-21T02:05:59.943Z,1.70
2017-12-21T02:08:27.485Z,1.80
2017-12-21T02:10:55.779Z,1.90
2017-12-21T02:13:23.394Z,1.90
2017-12-21T02:15:50.928Z,1.90
2017-12-21T02:18:18.463Z,1.90
2017-12-21T02:20:46.068Z,1.80
2017-12-21T02:23:14.516Z,1.90
2017-12-21T02:28:56.232Z,1.90
2017-12-21T02:31:23.776Z,1.80
2017-12-21T02:33:51.310Z,1.80
2017-12-21T02:36:19.635Z,1.70
2017-12-21T02:38:47.180Z,1.70
2017-12-21T02:41:15.852Z,1.70
2017-12-21T02:43:43.407Z,1.70
2017-12-21T02:46:10.939Z,1.80
2017-12-21T02:48:38.522Z,1.70
2017-12-21T02:51:06.315Z,1.70
2017-12-21T02:53:33.855Z,1.70
2017-12-21T02:56:01.389Z,1.80
2017-12-21T02:58:28.946Z,1.80
2017-12-21T03:00:57.251Z,1.80
2017-12-21T03:03:24.792Z,1.80
2017-12-21T03:05:52.369Z,1.80
2017-12-21T03:08:19.904Z,1.90
2017-12-21T03:10:47.449Z,1.90
2017-12-21T03:13:16.468Z,1.90
2017-12-21T03:15:44.008Z,1.80
2017-12-21T03:18:11.544Z,1.90
2017-12-21T03:20:39.115Z,1.90
2017-12-21T03:23:07.415Z,1.70
2017-12-21T03:25:35.720Z,1.70
2017-12-21T03:28:03.332Z,1.70
2017-12-21T03:30:30.862Z,1.70
2017-12-21T03:32:58.412Z,1.60
2017-12-21T03:35:26.000Z,1.70
2017-12-21T03:37:54.311Z,1.70
2017-12-21T03:40:21.864Z,1.60
2017-12-21T03:42:49.749Z,1.70
2017-12-21T03:45:17.283Z,1.70
2017-12-21T03:47:45.576Z,1.80
2017-12-21T03:50:15.408Z,1.80
2017-12-21T03:52:43.239Z,1.80
2017-12-21T03:55:10.778Z,1.80
2017-12-21T03:57:39.127Z,1.80
2017-12-21T04:00:06.672Z,1.80
2017-12-21T04:02:34.976Z,1.70
2017-12-21T04:05:02.535Z,1.70
2017-12-21T04:07:30.062Z,1.70
2017-12-21T04:09:58.377Z,1.60
2017-12-21T04:12:26.759Z,1.60
2017-12-21T04:14:54.300Z,1.50
2017-12-21T04:17:21.835Z,1.50
2017-12-21T04:19:49.419Z,1.50
2017-12-21T04:22:16.979Z,1.60
2017-12-21T04:24:44.511Z,1.60
2017-12-21T04:27:12.091Z,1.70
2017-12-21T04:29:39.632Z,1.70
2017-12-21T04:32:07.948Z,1.80
2017-12-21T04:34:36.289Z,1.80
2017-12-21T04:37:03.843Z,1.80
2017-12-21T04:39:31.375Z,1.80
2017-12-21T04:41:58.965Z,1.80
2017-12-21T04:44:26.787Z,1.80
2017-12-21T04:46:54.327Z,1.80
2017-12-21T04:49:22.752Z,1.90
2017-12-21T04:51:50.285Z,1.90
2017-12-21T04:54:17.835Z,1.90
2017-12-21T04:56:45.392Z,1.90
2017-12-21T04:59:15.437Z,1.90
2017-12-21T05:01:42.972Z,1.90
2017-12-21T05:04:10.565Z,2.00
2017-12-21T05:06:38.115Z,2.00
2017-12-21T05:09:05.700Z,1.90
2017-12-21T05:11:34.039Z,1.90
2017-12-21T05:14:01.576Z,1.90
2017-12-21T05:16:29.881Z,1.90
2017-12-21T05:18:57.468Z,1.90
2017-12-21T05:21:25.609Z,2.00
2017-12-21T05:23:53.351Z,2.00
2017-12-21T05:26:21.781Z,1.90
2017-12-21T05:28:50.095Z,1.90
2017-12-21T05:31:18.405Z,2.00
2017-12-21T05:33:45.972Z,2.00
2017-12-21T05:36:24.504Z,2.10
2017-12-21T05:42:02.730Z,2.00
2017-12-21T05:44:33.094Z,1.90
2017-12-21T05:47:00.635Z,1.90
2017-12-21T05:49:28.196Z,1.80
2017-12-21T05:51:55.727Z,1.90
2017-12-21T05:54:23.268Z,1.90
2017-12-21T05:56:50.852Z,1.90
2017-12-21T05:59:18.395Z,1.90
2017-12-21T06:01:45.956Z,1.80
2017-12-21T06:04:15.748Z,1.70
2017-12-21T06:06:43.287Z,1.70
2017-12-21T06:09:11.584Z,1.60
2017-12-21T06:11:39.154Z,1.60
2017-12-21T06:14:06.698Z,1.50
2017-12-21T06:16:34.256Z,1.50
2017-12-21T06:19:01.823Z,1.60
2017-12-21T06:21:29.356Z,1.60
2017-12-21T06:23:57.663Z,1.60
2017-12-21T06:26:25.259Z,1.60
2017-12-21T06:28:52.807Z,1.60
2017-12-21T06:31:20.362Z,1.60
2017-12-21T06:33:48.695Z,1.40
2017-12-21T06:36:17.204Z,1.30
2017-12-21T06:38:44.745Z,1.30
2017-12-21T06:41:12.302Z,1.30
2017-12-21T06:43:39.860Z,1.30
2017-12-21T06:46:07.414Z,1.30
2017-12-21T06:48:35.058Z,1.30
2017-12-21T06:51:02.605Z,1.30
2017-12-21T06:53:30.153Z,1.30
2017-12-21T06:55:57.715Z,1.30
2017-12-21T06:58:25.252Z,1.20
2017-12-21T07:00:52.789Z,1.20
2017-12-21T07:03:20.455Z,1.20
2017-12-21T07:05:48.276Z,1.10
2017-12-21T07:08:16.432Z,1.10
2017-12-21T07:10:44.070Z,1.00
2017-12-21T07:13:11.671Z,1.00
2017-12-21T07:15:39.999Z,0.90
2017-12-21T07:18:07.564Z,0.90
2017-12-21T07:20:35.107Z,0.90
2017-12-21T07:23:02.677Z,0.90
2017-12-21T07:25:30.239Z,1.00
2017-12-21T07:27:57.844Z,1.00
2017-12-21T07:30:25.390Z,1.10
2017-12-21T07:32:52.991Z,1.20
2017-12-21T07:35:20.528Z,1.20
2017-12-21T07:37:48.839Z,1.20
2017-12-21T07:40:17.697Z,1.20
2017-12-21T07:42:46.037Z,1.10
2017-12-21T07:45:25.577Z,1.10
2017-12-21T07:52:01.963Z,1.00
2017-12-21T07:54:29.512Z,1.00
2017-12-21T07:56:57.043Z,1.00
2017-12-21T07:59:24.600Z,1.10
2017-12-21T08:01:52.139Z,1.20
2017-12-21T08:04:19.691Z,1.10
2017-12-21T08:06:48.022Z,1.10
2017-12-21T08:09:16.441Z,1.00
2017-12-21T08:11:44.762Z,1.00
2017-12-21T08:14:12.429Z,1.00
2017-12-21T08:16:39.968Z,1.20
2017-12-21T08:19:08.328Z,1.20
2017-12-21T08:21:36.668Z,1.30
2017-12-21T08:24:04.240Z,1.30
2017-12-21T08:26:31.784Z,1.40
2017-12-21T08:28:59.346Z,1.40
2017-12-21T08:31:26.895Z,1.30
2017-12-21T08:33:54.431Z,1.30
2017-12-21T08:36:22.015Z,1.30
2017-12-21T08:38:49.598Z,1.40
2017-12-21T08:41:17.153Z,1.40
2017-12-21T08:43:44.734Z,1.50
2017-12-21T08:46:13.966Z,1.70
2017-12-21T08:48:41.510Z,1.60
2017-12-21T08:51:09.071Z,1.70
2017-12-21T08:53:36.879Z,1.80
2017-12-21T08:56:04.451Z,1.90
2017-12-21T08:58:32.230Z,2.00
2017-12-21T09:00:59.798Z,2.10
2017-12-21T09:03:28.107Z,2.30
2017-12-21T09:05:55.688Z,2.30
2017-12-21T09:08:23.987Z,2.30
2017-12-21T09:10:51.652Z,2.30
2017-12-21T09:13:20.292Z,2.50
2017-12-21T09:15:47.866Z,2.50
2017-12-21T09:18:17.232Z,2.50
2017-12-21T09:20:45.086Z,2.40
2017-12-21T09:23:14.317Z,2.60
2017-12-21T09:25:41.855Z,2.60
2017-12-21T09:28:09.420Z,2.60
2017-12-21T09:30:36.976Z,2.60
2017-12-21T09:33:04.559Z,2.70
2017-12-21T09:35:32.138Z,2.70
2017-12-21T09:37:59.671Z,2.80
2017-12-21T09:40:27.215Z,2.90
2017-12-21T09:42:54.812Z,3.00
2017-12-21T09:45:22.344Z,3.10
2017-12-21T09:47:49.879Z,3.10
2017-12-21T09:50:17.439Z,3.20
2017-12-21T09:52:44.981Z,3.30
2017-12-21T09:55:14.392Z,3.40
2017-12-21T09:57:41.968Z,3.40
2017-12-21T10:00:09.516Z,3.50
2017-12-21T10:02:37.052Z,3.40
2017-12-21T10:05:05.418Z,3.40
2017-12-21T10:07:32.943Z,3.40
2017-12-21T10:10:00.490Z,3.40
2017-12-21T10:12:28.169Z,3.50
2017-12-21T10:14:55.746Z,3.60
2017-12-21T10:17:23.284Z,3.70
2017-12-21T10:19:50.836Z,3.70
2017-12-21T10:22:18.380Z,3.80
2017-12-21T10:24:45.933Z,3.80
2017-12-21T10:27:14.610Z,3.80
2017-12-21T10:29:42.147Z,4.00
2017-12-21T10:32:09.725Z,4.10
2017-12-21T10:34:37.335Z,4.10
2017-12-21T10:37:04.893Z,4.20
2017-12-21T10:39:32.427Z,4.20
2017-12-21T10:42:00.001Z,4.30
2017-12-21T10:44:27.546Z,4.20
2017-12-21T10:46:55.121Z,4.20
2017-12-21T10:49:22.711Z,4.30
2017-12-21T10:51:50.256Z,4.30
2017-12-21T10:54:17.829Z,4.40
2017-12-21T10:56:45.406Z,4.50
2017-12-21T10:59:21.452Z,4.50
2017-12-21T11:01:49.785Z,4.70
2017-12-21T11:04:17.331Z,4.70
2017-12-21T11:06:44.893Z,4.90
2017-12-21T11:09:12.505Z,5.10
2017-12-21T11:14:32.605Z,5.30
2017-12-21T11:43:00.448Z,5.40
2017-12-21T11:45:28.744Z,5.60
2017-12-21T11:47:56.272Z,5.60
2017-12-21T11:50:23.960Z,5.70
2017-12-21T11:52:51.504Z,5.70
2017-12-21T11:55:19.123Z,5.60
2017-12-21T11:57:47.011Z,5.60
2017-12-21T12:00:15.671Z,5.50
2017-12-21T12:02:44.006Z,5.50
2017-12-21T12:05:12.392Z,5.50
2017-12-21T12:07:40.871Z,5.50
2017-12-21T12:10:08.404Z,5.50
2017-12-21T12:12:36.772Z,5.60
2017-12-21T12:15:04.333Z,5.60
2017-12-21T12:17:32.782Z,5.50
2017-12-21T12:20:01.146Z,5.50
2017-12-21T12:22:28.687Z,5.50
2017-12-21T12:30:37.739Z,5.60
2017-12-21T12:33:06.036Z,5.60
2017-12-21T12:35:33.618Z,5.60
2017-12-21T12:38:01.914Z,5.60
2017-12-21T12:40:30.236Z,5.50
2017-12-21T12:42:57.805Z,5.50
2017-12-21T12:45:25.357Z,5.50
2017-12-21T12:47:52.887Z,5.50
2017-12-21T12:50:20.653Z,5.50
2017-12-21T12:52:48.982Z,5.50
2017-12-21T12:55:16.549Z,5.50
2017-12-21T12:57:44.105Z,5.40
2017-12-21T13:00:12.932Z,5.30
2017-12-21T13:02:40.475Z,5.30
2017-12-21T13:05:08.240Z,5.40
2017-12-21T13:07:35.781Z,5.30
2017-12-21T13:10:04.111Z,5.40
2017-12-21T13:12:31.723Z,5.40
2017-12-21T13:15:00.012Z,5.30
2017-12-21T13:17:27.591Z,5.30
2017-12-21T13:19:55.919Z,5.40
2017-12-21T13:22:23.447Z,5.30
2017-12-21T13:24:50.976Z,5.40
2017-12-21T13:27:18.540Z,5.40
2017-12-21T13:29:46.839Z,5.40
2017-12-21T13:32:15.539Z,5.40
2017-12-21T13:34:43.131Z,5.30
2017-12-21T13:37:10.653Z,5.30
2017-12-21T13:39:38.308Z,5.20
2017-12-21T13:42:05.886Z,5.10
2017-12-21T13:44:33.466Z,5.00
2017-12-21T13:47:01.028Z,5.00
2017-12-21T13:49:28.595Z,4.90
2017-12-21T13:51:56.120Z,4.90
2017-12-21T13:54:23.667Z,4.90
2017-12-21T13:56:51.262Z,4.90
2017-12-21T13:59:18.783Z,4.80
2017-12-21T14:01:46.559Z,4.70
2017-12-21T14:04:15.863Z,4.70
2017-12-21T14:06:43.397Z,4.60
2017-12-21T14:09:10.919Z,4.50
2017-12-21T14:11:38.480Z,4.50
2017-12-21T14:14:06.075Z,4.50
2017-12-21T14:16:33.599Z,4.40
2017-12-21T14:19:01.191Z,4.30
2017-12-21T14:21:28.783Z,4.30
2017-12-21T14:23:56.322Z,4.30
2017-12-21T14:26:23.959Z,4.40
2017-12-21T14:28:52.272Z,4.30
2017-12-21T14:31:19.854Z,4.30
2017-12-21T14:33:48.450Z,4.20
2017-12-21T14:36:16.375Z,4.30
2017-12-21T14:38:43.935Z,4.30
2017-12-21T14:41:11.885Z,4.30
2017-12-21T14:43:39.446Z,4.30
2017-12-21T14:46:07.827Z,4.20
2017-12-21T14:48:35.432Z,4.20
2017-12-21T14:51:02.972Z,4.10
2017-12-21T14:53:30.558Z,4.20
2017-12-21T14:55:58.140Z,4.20
2017-12-21T14:58:26.439Z,4.10
2017-12-21T15:00:53.983Z,4.10
2017-12-21T15:03:22.420Z,4.20
2017-12-21T15:05:49.995Z,4.20
2017-12-21T15:08:17.535Z,4.10
2017-12-21T15:10:45.133Z,4.10
2017-12-21T15:13:14.668Z,4.10
2017-12-21T15:15:42.221Z,4.10
2017-12-21T15:18:09.808Z,4.10
2017-12-21T15:20:37.351Z,4.10
2017-12-21T15:23:05.112Z,4.00
2017-12-21T15:25:32.707Z,4.00
2017-12-21T15:28:00.235Z,3.90
2017-12-21T15:30:27.808Z,4.00
2017-12-21T15:32:55.371Z,4.00
2017-12-21T15:35:22.909Z,4.10
2017-12-21T15:37:50.444Z,4.10
2017-12-21T15:40:18.006Z,4.10
2017-12-21T15:42:45.530Z,4.10
2017-12-21T15:45:14.795Z,4.10
2017-12-21T15:47:42.388Z,4.00
2017-12-21T15:50:10.042Z,4.00
2017-12-21T15:52:37.576Z,4.00
2017-12-21T15:55:05.163Z,4.10
2017-12-21T15:57:32.700Z,4.10
2017-12-21T16:00:00.222Z,4.10
2017-12-21T16:02:27.823Z,4.00
2017-12-21T16:04:55.347Z,4.00
2017-12-21T16:07:23.067Z,4.00
2017-12-21T16:09:50.723Z,4.00
2017-12-21T16:12:18.271Z,4.00
2017-12-21T16:14:45.842Z,4.00
2017-12-21T16:17:23.707Z,3.90
2017-12-21T16:22:33.834Z,3.90
2017-12-21T16:25:02.146Z,3.90
2017-12-21T16:27:29.672Z,3.90
2017-12-21T16:29:58.040Z,3.90
2017-12-21T16:32:26.347Z,3.90
2017-12-21T16:34:53.916Z,3.90
2017-12-21T16:37:22.252Z,4.00
2017-12-21T16:39:50.593Z,3.90
2017-12-21T16:42:18.136Z,3.90
2017-12-21T16:44:45.715Z,3.90
2017-12-21T16:47:25.083Z,4.00
2017-12-21T16:52:50.099Z,4.00
2017-12-21T16:55:17.655Z,4.00
2017-12-21T16:57:45.971Z,4.00
2017-12-21T17:00:19.646Z,3.90
2017-12-21T17:04:44.835Z,3.90
2017-12-21T17:07:13.483Z,3.90
2017-12-21T17:09:41.015Z,3.90
2017-12-21T17:12:09.310Z,3.90
2017-12-21T17:14:36.915Z,3.90
2017-12-21T17:17:05.243Z,3.90
2017-12-21T17:19:32.785Z,3.80
2017-12-21T17:22:00.361Z,3.90
2017-12-21T17:24:27.895Z,3.80
2017-12-21T17:26:55.441Z,3.90
2017-12-21T17:29:23.134Z,3.90
2017-12-21T17:31:50.679Z,4.00
2017-12-21T17:34:18.981Z,3.90
2017-12-21T17:36:46.576Z,3.90
2017-12-21T17:39:25.306Z,4.00
2017-12-21T17:46:27.343Z,3.90
2017-12-21T17:48:54.875Z,3.90
2017-12-21T17:51:23.176Z,3.90
2017-12-21T17:53:50.779Z,3.90
2017-12-21T17:56:18.349Z,4.00
2017-12-21T17:58:45.888Z,4.00
2017-12-21T18:01:18.609Z,4.00
2017-12-21T18:12:16.852Z,4.00
2017-12-21T18:14:44.400Z,3.90
2017-12-21T18:17:13.718Z,3.90
2017-12-21T18:19:41.315Z,3.90
2017-12-21T18:22:08.897Z,3.90
2017-12-21T18:24:36.455Z,4.00
2017-12-21T18:27:04.074Z,4.00
2017-12-21T18:29:31.640Z,4.00
2017-12-21T18:31:59.176Z,4.00
2017-12-21T18:34:26.830Z,4.10
2017-12-21T18:36:54.486Z,4.20
2017-12-21T18:39:22.046Z,4.20
2017-12-21T18:41:50.375Z,4.10
2017-12-21T18:44:17.962Z,4.10
2017-12-21T18:46:45.539Z,4.20
2017-12-21T18:49:24.592Z,4.20
2017-12-21T18:52:14.506Z,4.10
2017-12-21T18:54:42.205Z,4.10
2017-12-21T18:57:10.503Z,4.10
2017-12-21T18:59:38.030Z,4.10
2017-12-21T19:02:05.599Z,4.10
2017-12-21T19:04:33.946Z,4.00
2017-12-21T19:07:01.518Z,4.00
2017-12-21T19:09:29.143Z,4.10
2017-12-21T19:11:56.681Z,4.10
2017-12-21T19:14:24.981Z,4.10
2017-12-21T19:16:53.268Z,4.10
2017-12-21T19:19:20.851Z,4.10
2017-12-21T19:21:48.430Z,4.10
2017-12-21T19:24:16.564Z,4.20
2017-12-21T19:26:44.091Z,4.20
2017-12-21T19:29:11.628Z,4.10
2017-12-21T19:31:39.226Z,4.20
2017-12-21T19:34:06.807Z,4.20
2017-12-21T19:36:34.391Z,4.20
2017-12-21T19:39:02.822Z,4.20
2017-12-21T19:41:30.397Z,4.20
2017-12-21T19:43:58.002Z,4.30
2017-12-21T19:46:26.422Z,4.20
2017-12-21T19:48:54.100Z,4.20
2017-12-21T19:51:21.686Z,4.20
2017-12-21T19:53:49.326Z,4.10
2017-12-21T19:56:16.907Z,4.20
2017-12-21T19:58:45.267Z,4.20
2017-12-21T20:01:13.796Z,4.20
2017-12-21T20:03:41.384Z,4.20
2017-12-21T20:06:08.930Z,4.20
2017-12-21T20:08:36.574Z,4.20
2017-12-21T20:11:04.170Z,4.20
2017-12-21T20:13:31.800Z,4.20
2017-12-21T20:15:59.693Z,4.10
2017-12-21T20:18:28.056Z,4.10
2017-12-21T20:20:55.714Z,4.10
2017-12-21T20:23:23.358Z,4.10
2017-12-21T20:25:50.967Z,4.20
2017-12-21T20:28:19.470Z,4.20
2017-12-21T20:30:47.085Z,4.20
2017-12-21T20:33:17.266Z,4.10
2017-12-21T20:35:45.638Z,4.10
2017-12-21T20:38:25.349Z,4.10
2017-12-21T20:48:53.011Z,4.10
2017-12-21T20:51:20.607Z,4.10
2017-12-21T20:53:48.185Z,4.10
2017-12-21T20:56:17.401Z,4.10
2017-12-21T20:58:44.990Z,4.10
2017-12-21T21:01:12.612Z,4.10
2017-12-21T21:03:40.323Z,4.20
2017-12-21T21:06:07.989Z,4.20
2017-12-21T21:08:35.629Z,4.30
2017-12-21T21:11:03.993Z,4.30
2017-12-21T21:13:31.707Z,4.20
2017-12-21T21:15:59.342Z,4.20
2017-12-21T21:18:27.312Z,4.20
2017-12-21T21:20:54.847Z,4.30
2017-12-21T21:23:22.548Z,4.20
2017-12-21T21:25:50.163Z,4.20
2017-12-21T21:28:17.754Z,4.30
2017-12-21T21:30:45.409Z,4.30
2017-12-21T21:33:15.500Z,4.30
2017-12-21T21:35:43.088Z,4.30
2017-12-21T21:38:10.674Z,4.40
2017-12-21T21:40:38.319Z,4.40
2017-12-21T21:43:06.024Z,4.40
2017-12-21T21:45:33.559Z,4.40
2017-12-21T21:48:01.187Z,4.40
2017-12-21T21:50:28.808Z,4.40
2017-12-21T21:53:00.211Z,4.40
2017-12-21T21:58:05.574Z,4.40
2017-12-21T22:00:33.270Z,4.40
2017-12-21T22:03:00.977Z,4.40
2017-12-21T22:05:28.620Z,4.40
2017-12-21T22:07:56.975Z,4.30
2017-12-21T22:10:24.851Z,4.30
2017-12-21T22:12:52.469Z,4.30
2017-12-21T22:15:20.100Z,4.30
2017-12-21T22:17:48.619Z,4.30
2017-12-21T22:20:16.574Z,4.30
2017-12-21T22:22:44.276Z,4.40
2017-12-21T22:25:11.943Z,4.40
2017-12-21T22:27:39.528Z,4.40
2017-12-21T22:30:07.106Z,4.40
2017-12-21T22:32:34.802Z,4.40
2017-12-21T22:35:03.244Z,4.50
2017-12-21T22:37:30.819Z,4.40
2017-12-21T22:39:58.538Z,4.50
2017-12-21T22:42:26.405Z,4.50
2017-12-21T22:44:54.013Z,4.50
2017-12-21T22:47:21.615Z,4.60
2017-12-21T22:49:49.303Z,4.50
2017-12-21T22:52:18.860Z,4.50
2017-12-21T22:54:46.495Z,4.40
2017-12-21T22:57:15.564Z,4.50
2017-12-21T22:59:43.953Z,4.40
2017-12-21T23:02:11.587Z,4.40
2017-12-21T23:04:40.021Z,4.40
2017-12-21T23:07:07.645Z,4.40
2017-12-21T23:09:35.285Z,4.40
2017-12-21T23:12:03.984Z,4.40
2017-12-21T23:14:33.376Z,4.40
2017-12-21T23:17:00.956Z,4.40
2017-12-21T23:19:28.614Z,4.40
2017-12-21T23:21:57.077Z,4.30
2017-12-21T23:24:25.458Z,4.30
2017-12-21T23:26:53.812Z,4.30
2017-12-21T23:29:21.434Z,4.30
2017-12-21T23:31:49.119Z,4.40
2017-12-21T23:34:16.698Z,4.30
2017-12-21T23:36:44.290Z,4.30
2017-12-21T23:39:11.875Z,4.40
2017-12-21T23:41:39.461Z,4.30
2017-12-21T23:44:06.992Z,4.30
2017-12-21T23:46:34.568Z,4.30
2017-12-21T23:49:02.316Z,4.30
2017-12-21T23:51:29.849Z,4.30
2017-12-21T23:53:58.249Z,4.40
2017-12-21T23:56:25.785Z,4.40
2017-12-21T23:58:54.206Z,4.40
